createdAt,value
2017-08-08T00:02:05.832Z,18.50
2017-08-08T00:04:33.355Z,18.50
2017-08-08T00:07:01.036Z,18.50
2017-08-08T00:09:28.579Z,18.40
2017-08-08T00:11:56.093Z,18.40
2017-08-08T00:14:23.604Z,18.40
2017-08-08T00:16:51.141Z,18.30
2017-08-08T00:19:18.657Z,18.30
2017-08-08T00:21:46.175Z,18.20
2017-08-08T00:24:13.841Z,18.20
2017-08-08T00:26:41.350Z,18.20
2017-08-08T00:29:08.862Z,18.20
2017-08-08T00:31:36.411Z,18.20
2017-08-08T00:34:03.922Z,18.10
2017-08-08T00:36:31.439Z,18.10
2017-08-08T00:38:58.974Z,18.10
2017-08-08T00:41:26.486Z,18.10
2017-08-08T00:43:54.395Z,18.00
2017-08-08T00:46:21.927Z,18.10
2017-08-08T00:48:49.473Z,18.00
2017-08-08T00:51:17.385Z,17.90
2017-08-08T00:53:44.922Z,18.00
2017-08-08T00:56:12.444Z,17.90
2017-08-08T00:58:39.955Z,17.80
2017-08-08T01:01:07.500Z,17.70
2017-08-08T01:03:35.014Z,17.70
2017-08-08T01:06:02.531Z,17.60
2017-08-08T01:08:30.072Z,17.60
2017-08-08T01:10:57.979Z,17.50
2017-08-08T01:13:25.482Z,17.60
2017-08-08T01:15:53.010Z,17.60
2017-08-08T01:18:20.519Z,17.60
2017-08-08T01:20:48.426Z,17.70
2017-08-08T01:23:15.963Z,17.70
2017-08-08T01:25:43.479Z,17.70
2017-08-08T01:28:10.995Z,17.70
2017-08-08T01:30:38.538Z,17.80
2017-08-08T01:33:06.054Z,17.80
2017-08-08T01:35:33.567Z,17.70
2017-08-08T01:38:01.111Z,17.70
2017-08-08T01:40:29.035Z,17.70
2017-08-08T01:42:56.563Z,17.70
2017-08-08T01:45:24.124Z,17.70
2017-08-08T01:47:51.640Z,17.70
2017-08-08T01:50:19.156Z,17.60
2017-08-08T01:52:46.712Z,17.60
2017-08-08T01:55:14.232Z,17.70
2017-08-08T01:57:41.739Z,17.70
2017-08-08T02:00:09.279Z,17.50
2017-08-08T02:02:36.794Z,17.50
2017-08-08T02:05:04.316Z,17.40
2017-08-08T02:07:31.867Z,17.30
2017-08-08T02:09:59.379Z,17.20
2017-08-08T02:12:26.897Z,17.10
2017-08-08T02:14:54.431Z,17.00
2017-08-08T02:17:22.339Z,16.90
2017-08-08T02:19:49.856Z,17.00
2017-08-08T02:22:17.396Z,16.90
2017-08-08T02:24:45.339Z,16.80
2017-08-08T02:27:12.879Z,16.90
2017-08-08T02:29:40.416Z,16.90
2017-08-08T02:32:07.948Z,16.90
2017-08-08T02:34:35.463Z,17.00
2017-08-08T02:37:03.009Z,17.00
2017-08-08T02:39:30.526Z,16.90
2017-08-08T02:41:58.044Z,16.90
2017-08-08T02:44:25.579Z,16.80
2017-08-08T02:46:53.114Z,16.80
2017-08-08T02:49:20.626Z,16.80
2017-08-08T02:51:48.158Z,16.80
2017-08-08T02:54:15.675Z,16.70
2017-08-08T02:56:43.196Z,16.70
2017-08-08T02:59:10.731Z,16.70
2017-08-08T03:01:38.640Z,16.70
2017-08-08T03:04:06.151Z,16.70
2017-08-08T03:06:34.096Z,16.70
2017-08-08T03:09:01.615Z,16.70
2017-08-08T03:11:29.131Z,16.70
2017-08-08T03:13:56.671Z,16.60
2017-08-08T03:16:24.187Z,16.60
2017-08-08T03:18:51.712Z,16.60
2017-08-08T03:21:19.683Z,16.70
2017-08-08T03:23:47.208Z,16.80
2017-08-08T03:26:14.723Z,16.90
2017-08-08T03:28:42.262Z,16.90
2017-08-08T03:31:09.776Z,16.90
2017-08-08T03:33:37.290Z,16.90
2017-08-08T03:36:05.222Z,17.00
2017-08-08T03:38:32.737Z,17.00
2017-08-08T03:41:00.648Z,17.00
2017-08-08T03:43:28.196Z,17.00
2017-08-08T03:45:55.715Z,17.00
2017-08-08T03:48:23.623Z,17.00
2017-08-08T03:50:51.170Z,17.00
2017-08-08T03:53:18.690Z,17.00
2017-08-08T03:55:46.224Z,17.00
2017-08-08T03:58:13.776Z,17.00
2017-08-08T04:00:41.411Z,17.00
2017-08-08T04:03:08.971Z,17.00
2017-08-08T04:05:36.496Z,17.00
2017-08-08T04:08:04.031Z,17.00
2017-08-08T04:10:31.570Z,17.00
2017-08-08T04:12:59.083Z,17.10
2017-08-08T04:15:26.985Z,17.10
2017-08-08T04:17:54.527Z,17.20
2017-08-08T04:20:22.439Z,17.20
2017-08-08T04:22:49.955Z,17.20
2017-08-08T04:25:17.887Z,17.30
2017-08-08T04:27:45.398Z,17.30
2017-08-08T04:30:12.924Z,17.40
2017-08-08T04:32:40.458Z,17.40
2017-08-08T04:35:07.992Z,17.40
2017-08-08T04:37:35.503Z,17.40
2017-08-08T04:40:03.038Z,17.40
2017-08-08T04:42:30.552Z,17.50
2017-08-08T04:44:58.469Z,17.50
2017-08-08T04:47:26.011Z,17.50
2017-08-08T04:49:53.535Z,17.50
2017-08-08T04:52:21.504Z,17.50
2017-08-08T04:54:49.055Z,17.50
2017-08-08T04:57:16.970Z,17.50
2017-08-08T04:59:44.490Z,17.50
2017-08-08T05:02:12.039Z,17.50
2017-08-08T05:04:39.555Z,17.50
2017-08-08T05:07:07.078Z,17.50
2017-08-08T05:09:34.620Z,17.60
2017-08-08T05:12:02.136Z,17.60
2017-08-08T05:14:29.645Z,17.70
2017-08-08T05:16:57.583Z,18.00
2017-08-08T05:19:25.110Z,18.00
2017-08-08T05:21:52.627Z,18.10
2017-08-08T05:24:20.124Z,18.20
2017-08-08T05:26:47.662Z,18.30
2017-08-08T05:29:15.582Z,18.40
2017-08-08T05:31:43.119Z,18.40
2017-08-08T05:34:10.631Z,18.40
2017-08-08T05:36:38.145Z,18.50
2017-08-08T05:39:05.683Z,18.50
2017-08-08T05:41:33.591Z,18.50
2017-08-08T05:44:01.102Z,18.60
2017-08-08T05:46:28.703Z,18.60
2017-08-08T05:48:56.218Z,18.70
2017-08-08T05:51:24.128Z,18.90
2017-08-08T05:53:51.994Z,18.90
2017-08-08T05:56:19.501Z,19.00
2017-08-08T05:58:47.011Z,19.10
2017-08-08T06:01:14.550Z,19.20
2017-08-08T06:03:42.455Z,19.30
2017-08-08T06:06:09.981Z,19.30
2017-08-08T06:08:37.518Z,19.30
2017-08-08T06:11:05.030Z,19.40
2017-08-08T06:13:32.537Z,19.40
2017-08-08T06:16:00.074Z,19.50
2017-08-08T06:18:27.764Z,19.50
2017-08-08T06:20:55.284Z,19.50
2017-08-08T06:23:22.822Z,19.40
2017-08-08T06:25:50.331Z,19.40
2017-08-08T06:28:17.842Z,19.50
2017-08-08T06:30:45.379Z,19.50
2017-08-08T06:33:13.307Z,19.50
2017-08-08T06:35:40.823Z,19.50
2017-08-08T06:38:08.363Z,19.50
2017-08-08T06:40:36.280Z,19.60
2017-08-08T06:43:03.787Z,19.60
2017-08-08T06:45:31.331Z,19.80
2017-08-08T06:47:58.849Z,19.90
2017-08-08T06:50:26.366Z,19.90
2017-08-08T06:52:53.904Z,20.00
2017-08-08T06:55:21.406Z,20.20
2017-08-08T06:57:49.302Z,20.20
2017-08-08T07:00:16.839Z,20.20
2017-08-08T07:02:44.347Z,20.20
2017-08-08T07:05:11.858Z,20.30
2017-08-08T07:07:39.395Z,20.30
2017-08-08T07:10:06.911Z,20.40
2017-08-08T07:12:34.423Z,20.50
2017-08-08T07:15:02.578Z,20.90
2017-08-08T07:17:30.099Z,20.90
2017-08-08T07:19:57.607Z,21.00
2017-08-08T07:22:25.159Z,21.10
2017-08-08T07:24:52.670Z,21.10
2017-08-08T07:27:20.190Z,21.30
2017-08-08T07:29:47.723Z,21.50
2017-08-08T07:32:15.236Z,21.50
2017-08-08T07:34:43.583Z,21.50
2017-08-08T07:37:11.131Z,21.70
2017-08-08T07:39:38.643Z,21.80
2017-08-08T07:42:06.167Z,21.90
2017-08-08T07:44:33.698Z,22.00
2017-08-08T07:47:01.215Z,22.20
2017-08-08T07:49:28.727Z,22.40
2017-08-08T07:51:56.274Z,22.50
2017-08-08T07:54:23.783Z,22.60
2017-08-08T07:56:51.295Z,22.60
2017-08-08T07:59:18.830Z,22.70
2017-08-08T08:01:46.368Z,22.70
2017-08-08T08:04:13.878Z,22.70
2017-08-08T08:06:41.395Z,22.80
2017-08-08T08:09:09.335Z,23.10
2017-08-08T08:11:36.852Z,23.10
2017-08-08T08:14:04.363Z,23.20
2017-08-08T08:16:31.898Z,23.50
2017-08-08T08:18:59.415Z,23.80
2017-08-08T08:21:26.932Z,24.00
2017-08-08T08:23:54.466Z,24.20
2017-08-08T08:26:21.983Z,24.30
2017-08-08T08:28:49.495Z,24.10
2017-08-08T08:31:17.033Z,24.10
2017-08-08T08:33:44.543Z,24.10
2017-08-08T08:36:12.055Z,24.20
2017-08-08T08:38:39.586Z,24.30
2017-08-08T08:41:07.099Z,24.30
2017-08-08T08:43:34.606Z,24.40
2017-08-08T08:46:02.143Z,24.50
2017-08-08T08:48:29.652Z,24.70
2017-08-08T08:50:57.171Z,24.80
2017-08-08T08:53:25.113Z,24.80
2017-08-08T08:55:52.629Z,24.80
2017-08-08T08:58:20.147Z,24.80
2017-08-08T09:00:47.707Z,24.70
2017-08-08T09:03:15.227Z,24.50
2017-08-08T09:05:42.743Z,24.50
2017-08-08T09:08:10.670Z,24.30
2017-08-08T09:10:38.182Z,24.30
2017-08-08T09:13:06.095Z,24.20
2017-08-08T09:15:33.626Z,24.20
2017-08-08T09:18:01.133Z,24.20
2017-08-08T09:20:28.644Z,24.20
2017-08-08T09:22:56.174Z,24.20
2017-08-08T09:25:23.682Z,24.30
2017-08-08T09:27:51.199Z,24.10
2017-08-08T09:30:19.135Z,24.00
2017-08-08T09:32:46.648Z,24.00
2017-08-08T09:35:14.162Z,23.90
2017-08-08T09:37:41.698Z,23.80
2017-08-08T09:40:09.207Z,23.70
2017-08-08T09:42:37.114Z,23.60
2017-08-08T09:45:04.647Z,23.60
2017-08-08T09:47:32.551Z,23.50
2017-08-08T09:50:00.062Z,23.50
2017-08-08T09:52:27.595Z,23.40
2017-08-08T09:54:55.106Z,23.40
2017-08-08T09:57:22.628Z,23.50
2017-08-08T09:59:50.170Z,23.40
2017-08-08T10:02:17.684Z,23.40
2017-08-08T10:04:45.591Z,23.40
2017-08-08T10:07:13.130Z,23.40
2017-08-08T10:09:40.643Z,23.50
2017-08-08T10:12:08.156Z,23.30
2017-08-08T10:14:35.720Z,23.40
2017-08-08T10:17:03.234Z,23.50
2017-08-08T10:19:31.154Z,24.10
2017-08-08T10:21:58.714Z,24.10
2017-08-08T10:24:26.228Z,24.50
2017-08-08T10:26:54.140Z,24.90
2017-08-08T10:29:21.679Z,24.90
2017-08-08T10:31:49.199Z,25.20
2017-08-08T10:34:16.711Z,25.60
2017-08-08T10:36:44.255Z,25.40
2017-08-08T10:39:12.154Z,25.40
2017-08-08T10:41:39.658Z,25.40
2017-08-08T10:44:07.199Z,25.30
2017-08-08T10:46:34.702Z,25.20
2017-08-08T10:49:02.615Z,25.40
2017-08-08T10:51:30.160Z,25.40
2017-08-08T10:53:57.675Z,25.60
2017-08-08T10:56:25.582Z,26.00
2017-08-08T10:58:53.118Z,26.00
2017-08-08T11:01:21.028Z,26.40
2017-08-08T11:03:48.547Z,26.40
2017-08-08T11:06:16.489Z,26.30
2017-08-08T11:08:44.008Z,26.30
2017-08-08T11:11:11.524Z,26.00
2017-08-08T11:13:39.455Z,25.50
2017-08-08T11:16:06.967Z,25.60
2017-08-08T11:18:34.498Z,25.50
2017-08-08T11:21:02.043Z,25.40
2017-08-08T11:23:29.562Z,25.30
2017-08-08T11:25:57.077Z,25.40
2017-08-08T11:28:24.615Z,25.40
2017-08-08T11:30:52.130Z,25.50
2017-08-08T11:33:19.643Z,25.50
2017-08-08T11:35:47.178Z,25.70
2017-08-08T11:38:14.690Z,25.80
2017-08-08T11:40:42.198Z,25.80
2017-08-08T11:43:09.740Z,25.90
2017-08-08T11:45:37.259Z,25.80
2017-08-08T11:48:04.853Z,25.90
2017-08-08T11:50:32.395Z,25.80
2017-08-08T11:52:59.907Z,25.80
2017-08-08T11:55:27.410Z,25.80
2017-08-08T11:57:54.946Z,25.70
2017-08-08T12:00:22.452Z,25.60
2017-08-08T12:02:50.358Z,25.60
2017-08-08T12:05:17.907Z,25.60
2017-08-08T12:07:45.411Z,25.50
2017-08-08T12:10:12.915Z,25.40
2017-08-08T12:12:40.447Z,25.20
2017-08-08T12:15:07.956Z,25.20
2017-08-08T12:17:35.476Z,25.20
2017-08-08T12:20:03.016Z,25.20
2017-08-08T12:22:30.544Z,25.10
2017-08-08T12:24:58.051Z,25.10
2017-08-08T12:27:25.974Z,25.30
2017-08-08T12:29:53.474Z,25.30
2017-08-08T12:32:20.979Z,25.40
2017-08-08T12:34:48.514Z,25.40
2017-08-08T12:37:16.413Z,25.70
2017-08-08T12:39:43.919Z,25.70
2017-08-08T12:42:11.467Z,25.80
2017-08-08T12:44:38.967Z,25.70
2017-08-08T12:47:06.475Z,25.60
2017-08-08T12:49:34.019Z,25.40
2017-08-08T12:52:01.527Z,25.30
2017-08-08T12:54:29.033Z,25.20
2017-08-08T12:56:56.563Z,25.20
2017-08-08T12:59:24.470Z,25.00
2017-08-08T13:01:51.970Z,25.00
2017-08-08T13:04:19.498Z,25.00
2017-08-08T13:06:47.010Z,25.00
2017-08-08T13:09:14.912Z,25.10
2017-08-08T13:11:42.447Z,25.10
2017-08-08T13:14:09.960Z,25.10
2017-08-08T13:16:37.472Z,25.10
2017-08-08T13:19:05.007Z,25.10
2017-08-08T13:21:32.923Z,24.60
2017-08-08T13:24:00.439Z,24.60
2017-08-08T13:26:28.367Z,24.30
2017-08-08T13:28:55.880Z,24.40
2017-08-08T13:31:23.783Z,24.20
2017-08-08T13:33:51.312Z,24.20
2017-08-08T13:36:19.223Z,23.80
2017-08-08T13:38:46.734Z,23.80
2017-08-08T13:41:14.676Z,23.50
2017-08-08T13:43:42.192Z,23.50
2017-08-08T13:46:09.736Z,23.30
2017-08-08T13:48:37.266Z,23.10
2017-08-08T13:51:04.777Z,23.00
2017-08-08T13:53:32.278Z,22.80
2017-08-08T13:55:59.819Z,22.80
2017-08-08T13:58:27.332Z,22.80
2017-08-08T14:00:55.243Z,22.80
2017-08-08T14:03:22.779Z,22.90
2017-08-08T14:05:50.291Z,23.00
2017-08-08T14:08:17.808Z,23.10
2017-08-08T14:10:45.339Z,23.20
2017-08-08T14:13:12.852Z,23.20
2017-08-08T14:15:40.363Z,23.30
2017-08-08T14:18:07.899Z,23.40
2017-08-08T14:20:35.407Z,23.50
2017-08-08T14:23:02.915Z,23.50
2017-08-08T14:25:30.456Z,23.50
2017-08-08T14:27:57.967Z,23.40
2017-08-08T14:30:25.471Z,23.10
2017-08-08T14:32:53.005Z,23.00
2017-08-08T14:35:20.524Z,22.80
2017-08-08T14:37:48.438Z,22.70
2017-08-08T14:40:15.975Z,22.70
2017-08-08T14:42:43.875Z,22.60
2017-08-08T14:45:11.374Z,22.60
2017-08-08T14:47:38.911Z,22.60
2017-08-08T14:50:06.419Z,22.60
2017-08-08T14:52:34.324Z,22.70
2017-08-08T14:55:01.859Z,22.70
2017-08-08T14:57:29.390Z,22.70
2017-08-08T14:59:57.309Z,22.70
2017-08-08T15:02:24.839Z,22.70
2017-08-08T15:04:52.771Z,22.60
2017-08-08T15:07:20.274Z,22.60
2017-08-08T15:09:47.807Z,22.50
2017-08-08T15:12:15.324Z,22.50
2017-08-08T15:14:42.836Z,22.50
2017-08-08T15:17:10.767Z,22.60
2017-08-08T15:19:38.279Z,22.60
2017-08-08T15:22:05.786Z,22.60
2017-08-08T15:24:33.315Z,22.60
2017-08-08T15:27:00.828Z,22.60
2017-08-08T15:29:28.335Z,22.60
2017-08-08T15:31:55.884Z,22.70
2017-08-08T15:34:23.399Z,22.90
2017-08-08T15:36:50.923Z,23.00
2017-08-08T15:39:18.468Z,23.10
2017-08-08T15:41:45.995Z,23.20
2017-08-08T15:44:13.512Z,23.30
2017-08-08T15:46:41.056Z,23.40
2017-08-08T15:49:08.570Z,23.40
2017-08-08T15:51:36.078Z,23.40
2017-08-08T15:54:03.606Z,23.60
2017-08-08T15:56:31.113Z,23.90
2017-08-08T15:58:58.584Z,24.00
2017-08-08T16:01:26.144Z,24.20
2017-08-08T16:03:53.664Z,24.40
2017-08-08T16:06:21.179Z,24.40
2017-08-08T16:08:48.719Z,24.40
2017-08-08T16:11:16.227Z,24.30
2017-08-08T16:13:43.732Z,24.20
2017-08-08T16:16:11.259Z,24.20
2017-08-08T16:18:39.200Z,24.00
2017-08-08T16:21:06.702Z,24.00
2017-08-08T16:23:34.236Z,23.70
2017-08-08T16:26:02.153Z,23.30
2017-08-08T16:28:29.655Z,23.30
2017-08-08T16:30:57.183Z,23.20
2017-08-08T16:33:24.702Z,23.10
2017-08-08T16:35:52.243Z,23.10
2017-08-08T16:38:19.753Z,23.10
2017-08-08T16:40:47.262Z,23.00
2017-08-08T16:43:14.789Z,23.00
2017-08-08T16:45:42.299Z,23.10
2017-08-08T16:48:09.811Z,23.20
2017-08-08T16:50:37.354Z,23.30
2017-08-08T16:53:04.858Z,23.40
2017-08-08T16:55:32.389Z,23.50
2017-08-08T16:57:59.911Z,23.60
2017-08-08T17:00:27.498Z,23.50
2017-08-08T17:02:55.031Z,23.30
2017-08-08T17:05:22.582Z,23.20
2017-08-08T17:07:50.699Z,22.90
2017-08-08T17:10:18.243Z,22.90
2017-08-08T17:12:45.747Z,22.70
2017-08-08T17:15:13.283Z,22.60
2017-08-08T17:17:40.787Z,22.50
2017-08-08T17:20:08.852Z,22.30
2017-08-08T17:22:36.382Z,22.30
2017-08-08T17:25:03.891Z,22.20
2017-08-08T17:27:31.800Z,22.20
2017-08-08T17:29:59.335Z,22.20
2017-08-08T17:32:26.838Z,22.10
2017-08-08T17:34:54.369Z,22.10
2017-08-08T17:37:21.870Z,22.00
2017-08-08T17:39:49.377Z,22.00
2017-08-08T17:42:16.908Z,21.90
2017-08-08T17:44:44.814Z,21.80
2017-08-08T17:47:12.327Z,21.80
2017-08-08T17:49:39.866Z,21.80
2017-08-08T17:52:07.370Z,21.70
2017-08-08T17:54:34.874Z,21.70
2017-08-08T17:57:02.407Z,21.60
2017-08-08T17:59:29.919Z,21.60
2017-08-08T18:01:57.423Z,21.50
2017-08-08T18:04:24.975Z,21.50
2017-08-08T18:06:52.492Z,21.50
2017-08-08T18:09:20.004Z,21.40
2017-08-08T18:11:47.534Z,21.40
2017-08-08T18:14:15.056Z,21.30
2017-08-08T18:16:42.566Z,21.30
2017-08-08T18:19:10.500Z,21.30
2017-08-08T18:21:38.002Z,21.30
2017-08-08T18:24:05.526Z,21.30
2017-08-08T18:26:33.059Z,21.30
2017-08-08T18:29:00.571Z,21.30
2017-08-08T18:31:28.487Z,21.30
2017-08-08T18:33:56.027Z,21.30
2017-08-08T18:36:23.571Z,21.20
2017-08-08T18:38:51.474Z,21.10
2017-08-08T18:41:19.007Z,21.20
2017-08-08T18:43:46.514Z,21.10
2017-08-08T18:46:14.022Z,21.10
2017-08-08T18:48:41.549Z,21.10
2017-08-08T18:51:09.056Z,21.10
2017-08-08T18:53:36.572Z,21.10
2017-08-08T18:56:04.108Z,21.10
2017-08-08T18:58:31.635Z,21.00
2017-08-08T19:00:59.139Z,20.90
2017-08-08T19:03:26.631Z,20.90
2017-08-08T19:05:54.193Z,20.90
2017-08-08T19:08:22.100Z,20.80
2017-08-08T19:10:49.630Z,20.90
2017-08-08T19:13:17.545Z,20.80
2017-08-08T19:15:45.050Z,20.80
2017-08-08T19:18:12.584Z,20.80
2017-08-08T19:20:40.099Z,20.80
2017-08-08T19:23:07.611Z,20.80
2017-08-08T19:25:35.136Z,20.80
2017-08-08T19:28:02.638Z,20.80
2017-08-08T19:30:30.134Z,20.70
2017-08-08T19:32:57.670Z,20.70
2017-08-08T19:35:25.577Z,20.70
2017-08-08T19:37:53.091Z,20.70
2017-08-08T19:40:20.631Z,20.60
2017-08-08T19:42:48.146Z,20.60
2017-08-08T19:45:15.667Z,20.60
2017-08-08T19:47:43.276Z,20.60
2017-08-08T19:50:10.786Z,20.50
2017-08-08T19:52:38.299Z,20.50
2017-08-08T19:55:05.849Z,20.50
2017-08-08T19:57:33.354Z,20.40
2017-08-08T20:00:00.862Z,20.40
2017-08-08T20:02:28.394Z,20.40
2017-08-08T20:04:56.032Z,20.40
2017-08-08T20:07:23.551Z,20.40
2017-08-08T20:09:51.111Z,20.30
2017-08-08T20:12:18.633Z,20.30
2017-08-08T20:14:46.154Z,20.30
2017-08-08T20:17:13.683Z,20.30
2017-08-08T20:19:41.206Z,20.30
2017-08-08T20:22:08.751Z,20.20
2017-08-08T20:24:36.254Z,20.20
2017-08-08T20:27:04.152Z,20.10
2017-08-08T20:29:31.687Z,20.20
2017-08-08T20:31:59.588Z,20.10
2017-08-08T20:34:27.099Z,20.10
2017-08-08T20:36:54.617Z,20.10
2017-08-08T20:39:22.135Z,20.10
2017-08-08T20:41:50.063Z,20.10
2017-08-08T20:44:17.572Z,20.10
2017-08-08T20:46:45.078Z,20.10
2017-08-08T20:49:12.607Z,20.10
2017-08-08T20:51:40.119Z,20.10
2017-08-08T20:54:07.639Z,20.10
2017-08-08T20:56:35.171Z,20.10
2017-08-08T20:59:03.083Z,20.10
2017-08-08T21:01:30.594Z,20.10
2017-08-08T21:03:58.518Z,20.00
2017-08-08T21:06:26.023Z,20.00
2017-08-08T21:08:53.527Z,20.00
2017-08-08T21:11:21.054Z,19.90
2017-08-08T21:13:48.555Z,19.90
2017-08-08T21:16:16.088Z,19.90
2017-08-08T21:18:43.625Z,19.80
2017-08-08T21:21:11.138Z,19.80
2017-08-08T21:23:38.672Z,19.80
2017-08-08T21:26:06.202Z,19.80
2017-08-08T21:28:34.101Z,19.80
2017-08-08T21:31:01.611Z,19.80
2017-08-08T21:33:29.147Z,19.70
2017-08-08T21:35:56.678Z,19.70
2017-08-08T21:38:24.184Z,19.70
2017-08-08T21:40:51.719Z,19.60
2017-08-08T21:43:19.244Z,19.60
2017-08-08T21:45:46.765Z,19.60
2017-08-08T21:48:14.290Z,19.50
2017-08-08T21:50:41.799Z,19.50
2017-08-08T21:53:09.331Z,19.50
2017-08-08T21:55:36.871Z,19.50
2017-08-08T21:58:04.375Z,19.50
2017-08-08T22:00:31.894Z,19.50
2017-08-08T22:02:59.415Z,19.50
2017-08-08T22:05:27.324Z,19.50
2017-08-08T22:07:54.859Z,19.50
2017-08-08T22:10:22.384Z,19.40
2017-08-08T22:12:49.924Z,19.40
2017-08-08T22:15:17.451Z,19.40
2017-08-08T22:17:44.967Z,19.30
2017-08-08T22:20:12.504Z,19.20
2017-08-08T22:22:40.007Z,19.10
2017-08-08T22:25:07.520Z,19.10
2017-08-08T22:27:35.050Z,19.10
2017-08-08T22:30:02.563Z,19.10
2017-08-08T22:32:30.076Z,19.10
2017-08-08T22:34:57.607Z,19.10
2017-08-08T22:37:25.503Z,19.10
2017-08-08T22:39:53.007Z,19.10
2017-08-08T22:42:20.531Z,19.10
2017-08-08T22:44:48.035Z,19.00
2017-08-08T22:47:15.563Z,19.00
2017-08-08T22:49:43.806Z,18.90
2017-08-08T22:52:11.577Z,18.90
2017-08-08T22:54:39.121Z,18.90
2017-08-08T22:57:06.670Z,18.80
2017-08-08T22:59:34.761Z,18.80
2017-08-08T23:02:02.358Z,18.80
2017-08-08T23:04:29.882Z,18.70
2017-08-08T23:06:57.386Z,18.70
2017-08-08T23:09:25.433Z,18.70
2017-08-08T23:11:52.938Z,18.60
2017-08-08T23:14:20.438Z,18.60
2017-08-08T23:16:47.975Z,18.60
2017-08-08T23:19:15.887Z,18.60
2017-08-08T23:21:43.391Z,18.60
2017-08-08T23:24:10.927Z,18.60
2017-08-08T23:26:38.545Z,18.60
2017-08-08T23:29:06.469Z,18.60
2017-08-08T23:31:34.442Z,18.60
2017-08-08T23:34:01.959Z,18.70
2017-08-08T23:36:29.470Z,18.60
2017-08-08T23:38:57.011Z,18.60
2017-08-08T23:41:24.519Z,18.60
2017-08-08T23:43:52.422Z,18.50
2017-08-08T23:46:19.975Z,18.50
2017-08-08T23:48:47.478Z,18.50
2017-08-08T23:51:14.982Z,18.40
2017-08-08T23:53:42.510Z,18.40
2017-08-08T23:56:10.016Z,18.30
2017-08-08T23:58:37.531Z,18.30
